Time;durP1;ratioP1;P1;durP2;ratioP2;P2;SDS_P1;SDS_P2;PMS_P1;PMS_P2;Temp;Humidity;BMP_temperature;BMP_pressure;BME280_temperature;BME280_humidity;BME280_pressure;Samples;Min_cycle;Max_cycle;Signal;HPM_P1;HPM_P2
2023/01/25 00:01:44;;;;;;;17.23;9.63;;;4.50;97.10;;;;;;5011957;28;20504;-81
2023/01/25 00:04:11;;;;;;;15.63;8.77;;;4.50;97.00;;;;;;5011948;28;20448;-82
2023/01/25 00:06:36;;;;;;;13.88;8.45;;;4.60;96.90;;;;;;5010650;28;20053;-80
2023/01/25 00:09:03;;;;;;;14.63;8.85;;;4.60;96.80;;;;;;5011080;28;20440;-81
2023/01/25 00:11:29;;;;;;;17.77;9.43;;;4.60;96.80;;;;;;5012007;28;20513;-80
2023/01/25 00:13:56;;;;;;;14.57;8.70;;;4.50;96.70;;;;;;5011584;28;20026;-81
2023/01/25 00:16:22;;;;;;;14.35;8.93;;;4.40;96.60;;;;;;5010458;28;20079;-82
2023/01/25 00:18:48;;;;;;;16.33;9.70;;;4.40;96.70;;;;;;5011396;28;20325;-81
2023/01/25 00:21:16;;;;;;;16.23;8.57;;;4.40;96.80;;;;;;5012320;28;20029;-80
2023/01/25 00:23:42;;;;;;;17.05;8.77;;;4.40;96.90;;;;;;5012138;28;20026;-80
2023/01/25 00:26:08;;;;;;;16.67;8.80;;;4.30;96.80;;;;;;5010215;28;20439;-79
2023/01/25 00:28:34;;;;;;;15.18;8.75;;;4.20;96.90;;;;;;5010422;28;20524;-81
2023/01/25 00:31:01;;;;;;;12.00;7.38;;;4.20;97.00;;;;;;5010264;28;20142;-81
2023/01/25 00:33:42;;;;;;;15.32;8.77;;;4.20;96.80;;;;;;5010223;28;20040;-80
2023/01/25 00:36:20;;;;;;;14.63;7.22;;;4.20;96.80;;;;;;5010748;28;20547;-80
2023/01/25 00:38:47;;;;;;;;;;;4.10;96.80;;;;;;5011811;28;20049;-80
2023/01/25 00:41:13;;;;;;;15.00;7.82;;;4.10;96.90;;;;;;5009807;28;19913;-81
2023/01/25 00:43:38;;;;;;;18.67;8.80;;;4.20;97.00;;;;;;5011172;28;20034;-81
2023/01/25 00:46:04;;;;;;;16.00;8.60;;;4.10;96.90;;;;;;5010959;28;20563;-82
2023/01/25 00:48:30;;;;;;;14.32;8.52;;;4.20;97.10;;;;;;5009936;28;20180;-82
2023/01/25 00:51:00;;;;;;;16.38;8.85;;;4.10;97.20;;;;;;5014273;28;20054;-82
2023/01/25 00:53:26;;;;;;;15.23;8.45;;;4.10;97.20;;;;;;5009932;28;20400;-82
2023/01/25 00:55:52;;;;;;;14.90;8.85;;;4.10;97.20;;;;;;5010229;28;20034;-81
2023/01/25 00:58:18;;;;;;;18.27;8.68;;;4.20;97.30;;;;;;5010481;28;20053;-81
2023/01/25 01:00:43;;;;;;;16.05;8.35;;;4.10;97.30;;;;;;5010784;28;20476;-81
2023/01/25 01:03:09;;;;;;;15.77;8.50;;;4.10;97.30;;;;;;5010541;28;20467;-83
2023/01/25 01:05:35;;;;;;;13.85;7.43;;;4.10;97.30;;;;;;5011080;28;20030;-83
2023/01/25 01:08:01;;;;;;;13.73;7.65;;;4.00;97.40;;;;;;5009843;28;20042;-82
2023/01/25 01:10:27;;;;;;;18.55;9.00;;;4.00;97.40;;;;;;5009547;28;20137;-82
2023/01/25 01:12:53;;;;;;;16.63;8.77;;;4.10;97.70;;;;;;5010639;28;20401;-82
2023/01/25 01:15:19;;;;;;;13.45;8.43;;;4.10;97.60;;;;;;5010933;28;20471;-81
2023/01/25 01:17:45;;;;;;;14.38;8.32;;;4.10;97.50;;;;;;5011174;28;20088;-81
2023/01/25 01:20:11;;;;;;;17.92;8.70;;;4.10;97.60;;;;;;5010389;28;20184;-81
2023/01/25 01:22:37;;;;;;;15.48;8.93;;;4.10;97.70;;;;;;5011288;28;20037;-81
2023/01/25 01:25:03;;;;;;;17.42;9.05;;;4.00;97.60;;;;;;5010796;28;20030;-81
2023/01/25 01:27:29;;;;;;;19.00;9.10;;;3.90;97.80;;;;;;5013013;28;20136;-82
2023/01/25 01:29:54;;;;;;;17.88;9.32;;;3.90;97.80;;;;;;5014942;28;20101;-82
2023/01/25 01:32:20;;;;;;;18.20;9.52;;;4.00;98.00;;;;;;5013268;28;20395;-81
2023/01/25 01:34:45;;;;;;;24.05;10.70;;;4.00;97.90;;;;;;5014466;28;20135;-81
2023/01/25 01:37:11;;;;;;;20.55;9.80;;;4.00;98.00;;;;;;5013228;28;20038;-81
2023/01/25 01:39:37;;;;;;;20.88;10.15;;;4.00;98.00;;;;;;5012937;28;20040;-81
2023/01/25 01:42:03;;;;;;;16.88;8.82;;;4.00;98.00;;;;;;5013698;28;20040;-80
2023/01/25 01:44:51;;;;;;;16.65;9.32;;;4.00;98.00;;;;;;5012874;28;20064;-80
2023/01/25 01:47:19;;;;;;;17.50;9.90;;;3.80;98.10;;;;;;5013936;28;20026;-78
2023/01/25 01:50:00;;;;;;;20.10;10.23;;;3.90;98.60;;;;;;5014185;28;20034;-79
2023/01/25 01:52:35;;;;;;;17.52;9.57;;;3.90;98.30;;;;;;5012868;28;20353;-80
2023/01/25 01:55:07;;;;;;;21.98;10.07;;;3.90;98.30;;;;;;5014011;28;20515;-80
2023/01/25 01:57:57;;;;;;;14.98;8.77;;;3.90;98.20;;;;;;5013006;28;20448;-81
2023/01/25 02:00:29;;;;;;;18.35;9.30;;;3.80;98.20;;;;;;5011185;28;20456;-80
2023/01/25 02:02:55;;;;;;;21.67;10.50;;;3.80;98.30;;;;;;5013934;28;20368;-80
2023/01/25 02:05:42;;;;;;;16.98;8.77;;;3.80;98.40;;;;;;5013863;28;20132;-79
2023/01/25 02:08:12;;;;;;;18.67;9.75;;;3.70;98.50;;;;;;5012730;28;20034;-80
2023/01/25 02:10:38;;;;;;;19.13;9.05;;;3.60;98.60;;;;;;5013658;28;20030;-80
2023/01/25 02:13:03;;;;;;;15.73;8.73;;;3.60;98.70;;;;;;5013643;28;20033;-81
2023/01/25 02:15:46;;;;;;;22.05;9.88;;;3.60;98.80;;;;;;5013572;28;20018;-81
2023/01/25 02:18:12;;;;;;;21.00;9.48;;;3.70;98.80;;;;;;5013945;28;20026;-80
2023/01/25 02:20:41;;;;;;;17.75;9.50;;;3.60;98.80;;;;;;5013646;28;20029;-81
2023/01/25 02:23:23;;;;;;;20.42;9.77;;;3.70;98.90;;;;;;5013501;28;20118;-80
2023/01/25 02:25:48;;;;;;;22.25;10.10;;;3.70;98.80;;;;;;5011805;28;20034;-81
2023/01/25 02:28:23;;;;;;;20.52;9.85;;;3.70;98.90;;;;;;5012264;28;20044;-81
2023/01/25 02:30:49;;;;;;;20.45;10.70;;;3.70;98.90;;;;;;5012232;28;20026;-79
2023/01/25 02:33:15;;;;;;;20.58;10.35;;;3.60;99.00;;;;;;5013499;28;20084;-78
2023/01/25 02:35:47;;;;;;;20.20;10.57;;;3.60;99.20;;;;;;5004953;28;20416;-80
2023/01/25 02:38:17;;;;;;;24.20;10.60;;;3.70;99.20;;;;;;4993852;28;20041;-80
2023/01/25 02:40:47;;;;;;;25.02;11.70;;;3.70;99.10;;;;;;4993500;28;20041;-81
2023/01/25 02:43:15;;;;;;;26.38;11.27;;;3.70;99.20;;;;;;4993644;28;20531;-80
2023/01/25 02:45:45;;;;;;;20.90;9.63;;;3.80;99.20;;;;;;4993242;28;20038;-79
2023/01/25 02:48:10;;;;;;;22.45;10.57;;;3.80;99.30;;;;;;4992578;28;20453;-80
2023/01/25 02:50:36;;;;;;;19.90;10.25;;;3.80;99.30;;;;;;4992249;28;20061;-81
2023/01/25 02:53:02;;;;;;;23.48;10.95;;;3.80;99.20;;;;;;4992177;28;20457;-79
2023/01/25 02:55:27;;;;;;;20.85;10.48;;;3.80;99.20;;;;;;4993142;28;20038;-79
2023/01/25 02:57:53;;;;;;;20.02;9.50;;;3.80;99.30;;;;;;4993353;28;20030;-81
2023/01/25 03:00:20;;;;;;;24.85;11.02;;;3.70;99.40;;;;;;4993220;28;20041;-80
2023/01/25 03:02:46;;;;;;;22.50;10.93;;;3.70;99.50;;;;;;4994176;28;20461;-80
2023/01/25 03:05:15;;;;;;;21.67;10.13;;;3.80;99.50;;;;;;4992315;28;20539;-78
2023/01/25 03:07:40;;;;;;;20.48;10.00;;;3.80;99.50;;;;;;4993159;28;20027;-79
2023/01/25 03:10:06;;;;;;;18.65;9.40;;;3.80;99.60;;;;;;4992928;28;20453;-79
2023/01/25 03:12:32;;;;;;;17.17;8.90;;;3.80;99.60;;;;;;4992688;28;20109;-78
2023/01/25 03:14:58;;;;;;;17.02;8.60;;;3.80;99.60;;;;;;4993469;28;20078;-79
2023/01/25 03:17:24;;;;;;;15.32;8.20;;;3.80;99.50;;;;;;4993060;28;20437;-80
2023/01/25 03:19:52;;;;;;;17.38;8.93;;;3.80;99.60;;;;;;4992771;28;20030;-80
2023/01/25 03:22:18;;;;;;;16.20;8.20;;;3.70;99.80;;;;;;4991798;28;20504;-80
2023/01/25 03:24:44;;;;;;;17.15;8.88;;;3.70;99.80;;;;;;4993402;28;20356;-79
2023/01/25 03:27:10;;;;;;;15.55;8.65;;;3.80;99.70;;;;;;4993016;28;20289;-80
2023/01/25 03:29:37;;;;;;;17.35;9.05;;;3.70;99.70;;;;;;4991693;28;20030;-79
2023/01/25 03:32:03;;;;;;;16.27;8.38;;;3.70;99.90;;;;;;4992398;28;20026;-80
2023/01/25 03:34:32;;;;;;;16.48;8.35;;;3.70;99.90;;;;;;4991483;28;20356;-80
2023/01/25 03:36:58;;;;;;;19.08;9.07;;;3.70;99.90;;;;;;4991827;28;20050;-81
2023/01/25 03:39:24;;;;;;;15.57;7.82;;;3.70;99.90;;;;;;4991346;28;20223;-79
2023/01/25 03:41:50;;;;;;;17.25;7.82;;;3.70;99.90;;;;;;4993296;28;20026;-79
2023/01/25 03:44:15;;;;;;;16.48;8.45;;;3.70;99.90;;;;;;4992246;28;20199;-79
2023/01/25 03:46:41;;;;;;;15.55;8.02;;;3.70;99.90;;;;;;4992875;28;20114;-82
2023/01/25 03:49:08;;;;;;;13.27;7.07;;;3.60;99.90;;;;;;4992337;28;20058;-78
2023/01/25 03:51:34;;;;;;;15.77;7.50;;;3.50;99.90;;;;;;4993361;28;20034;-78
2023/01/25 03:54:00;;;;;;;15.00;7.03;;;3.50;99.90;;;;;;4993875;28;20026;-79
2023/01/25 03:56:26;;;;;;;13.20;6.57;;;3.60;99.90;;;;;;4992689;28;20030;-80
2023/01/25 03:58:51;;;;;;;12.23;6.20;;;3.50;99.90;;;;;;4995563;28;20030;-80
2023/01/25 04:01:17;;;;;;;13.30;6.95;;;3.40;99.90;;;;;;4997248;28;20112;-80
2023/01/25 04:03:43;;;;;;;12.75;7.03;;;3.50;99.90;;;;;;4999934;28;20459;-81
2023/01/25 04:06:11;;;;;;;13.10;6.47;;;3.40;99.90;;;;;;4996720;28;20038;-80
2023/01/25 04:08:45;;;;;;;12.73;5.63;;;3.40;99.90;;;;;;4994713;28;20039;-79
2023/01/25 04:11:11;;;;;;;12.88;5.90;;;3.30;99.90;;;;;;4992549;28;20042;-79
2023/01/25 04:13:38;;;;;;;11.10;5.70;;;3.30;99.90;;;;;;4990858;28;20125;-81
2023/01/25 04:16:05;;;;;;;13.48;6.43;;;3.30;99.90;;;;;;4990927;28;20034;-79
2023/01/25 04:18:31;;;;;;;13.68;5.15;;;3.30;99.90;;;;;;4992020;28;20076;-79
2023/01/25 04:21:03;;;;;;;10.85;5.13;;;3.20;99.90;;;;;;4991342;28;20364;-79
2023/01/25 04:23:28;;;;;;;11.07;5.63;;;3.20;99.90;;;;;;4991041;28;20038;-79
2023/01/25 04:25:59;;;;;;;10.18;5.05;;;3.20;99.90;;;;;;4991023;28;20030;-79
2023/01/25 04:28:27;;;;;;;10.43;4.78;;;3.20;99.90;;;;;;4990647;28;20402;-80
2023/01/25 04:30:54;;;;;;;10.68;5.03;;;3.30;99.90;;;;;;4992028;28;20460;-79
2023/01/25 04:33:23;;;;;;;12.18;5.45;;;3.30;99.90;;;;;;4992412;28;20026;-80
2023/01/25 04:35:49;;;;;;;10.32;5.55;;;3.30;99.90;;;;;;4991246;28;20417;-79
2023/01/25 04:38:15;;;;;;;11.98;6.03;;;3.40;99.90;;;;;;4990523;28;20084;-79
2023/01/25 04:40:42;;;;;;;10.55;5.28;;;3.30;99.90;;;;;;4991656;28;20369;-81
2023/01/25 04:43:08;;;;;;;10.68;5.70;;;3.60;99.90;;;;;;4991621;28;20038;-80
2023/01/25 04:45:35;;;;;;;12.18;6.05;;;3.40;99.90;;;;;;4990941;28;20711;-82
2023/01/25 04:48:09;;;;;;;15.82;5.65;;;3.40;99.90;;;;;;4991215;28;20069;-81
2023/01/25 04:50:36;;;;;;;11.60;5.63;;;3.40;99.90;;;;;;4991994;28;20468;-81
2023/01/25 04:53:04;;;;;;;11.33;5.60;;;3.40;99.90;;;;;;4992023;28;20042;-81
2023/01/25 04:55:30;;;;;;;13.02;5.55;;;3.30;99.90;;;;;;4991537;28;20038;-81
2023/01/25 04:57:56;;;;;;;11.05;5.15;;;3.40;99.90;;;;;;4991565;28;20040;-81
2023/01/25 05:00:22;;;;;;;8.13;4.70;;;3.40;99.90;;;;;;4992350;28;20030;-80
2023/01/25 05:02:48;;;;;;;9.43;4.85;;;3.30;99.90;;;;;;4995450;28;20117;-80
2023/01/25 05:05:16;;;;;;;11.75;5.78;;;3.30;99.90;;;;;;4994279;28;20035;-79
2023/01/25 05:07:45;;;;;;;10.65;4.63;;;3.30;99.90;;;;;;4994556;28;20118;-80
2023/01/25 05:10:11;;;;;;;10.32;5.68;;;3.30;99.90;;;;;;4994669;28;20035;-81
2023/01/25 05:12:37;;;;;;;12.00;5.95;;;3.50;99.90;;;;;;4995441;28;20044;-80
2023/01/25 05:15:04;;;;;;;12.98;6.07;;;3.40;99.90;;;;;;4995792;28;20117;-81
2023/01/25 05:17:30;;;;;;;11.50;5.40;;;3.30;99.90;;;;;;4994184;28;20121;-80
2023/01/25 05:19:55;;;;;;;9.25;4.75;;;3.30;99.90;;;;;;4995132;28;20121;-80
2023/01/25 05:22:22;;;;;;;12.65;5.78;;;3.30;99.90;;;;;;4995357;28;20060;-81
2023/01/25 05:24:50;;;;;;;12.15;5.88;;;3.30;99.90;;;;;;4993640;28;20204;-79
2023/01/25 05:27:18;;;;;;;16.77;6.95;;;3.40;99.90;;;;;;4994024;28;20133;-79
2023/01/25 05:29:45;;;;;;;12.18;5.68;;;3.40;99.90;;;;;;4994968;28;20035;-81
2023/01/25 05:32:18;;;;;;;14.70;6.88;;;3.30;99.90;;;;;;4993777;28;20023;-81
2023/01/25 05:34:44;;;;;;;13.82;7.07;;;3.30;99.90;;;;;;4993786;28;20097;-79
2023/01/25 05:37:13;;;;;;;16.55;7.47;;;3.40;99.90;;;;;;4995262;28;20030;-80
2023/01/25 05:39:38;;;;;;;11.48;6.13;;;3.70;99.90;;;;;;4995056;28;20022;-80
2023/01/25 05:42:10;;;;;;;13.90;7.43;;;3.50;99.90;;;;;;4994230;28;20073;-79
2023/01/25 05:44:39;;;;;;;16.05;6.55;;;3.50;99.90;;;;;;4994921;28;20023;-80
2023/01/25 05:47:05;;;;;;;16.55;7.75;;;3.50;99.90;;;;;;4994672;28;20121;-79
2023/01/25 05:49:31;;;;;;;14.57;6.85;;;3.70;99.90;;;;;;4993577;28;20026;-79
2023/01/25 05:51:57;;;;;;;13.40;7.07;;;3.50;99.90;;;;;;4986237;28;20030;-79
2023/01/25 05:54:22;;;;;;;13.57;6.63;;;3.40;99.90;;;;;;4993222;28;20076;-80
2023/01/25 05:56:52;;;;;;;13.48;6.55;;;3.50;99.90;;;;;;4995350;28;20417;-80
2023/01/25 05:59:18;;;;;;;14.80;7.63;;;3.50;99.90;;;;;;4993146;28;20070;-79
2023/01/25 06:01:46;;;;;;;17.52;7.97;;;3.50;99.90;;;;;;4994309;28;20492;-80
2023/01/25 06:04:13;;;;;;;;;;;3.50;99.90;;;;;;4993808;28;20039;-80
2023/01/25 06:06:39;;;;;;;25.33;8.40;;;3.50;99.90;;;;;;4994272;28;19924;-79
2023/01/25 06:09:05;;;;;;;16.30;7.75;;;3.50;99.90;;;;;;4994484;28;20026;-81
2023/01/25 06:11:31;;;;;;;17.52;7.70;;;3.60;99.90;;;;;;4993378;28;20026;-79
2023/01/25 06:13:57;;;;;;;16.88;6.97;;;3.50;99.90;;;;;;4994000;28;20057;-79
2023/01/25 06:16:23;;;;;;;16.95;8.43;;;3.60;99.90;;;;;;4991857;28;20030;-81
2023/01/25 06:18:49;;;;;;;17.35;8.40;;;3.60;99.90;;;;;;5000683;28;20026;-79
2023/01/25 06:21:14;;;;;;;15.80;7.65;;;3.60;99.90;;;;;;4993777;28;20022;-82
2023/01/25 06:23:40;;;;;;;15.88;7.85;;;3.50;99.90;;;;;;4993661;28;20030;-79
2023/01/25 06:26:11;;;;;;;22.00;9.20;;;3.60;99.90;;;;;;4992493;28;20050;-79
2023/01/25 06:28:37;;;;;;;20.27;8.95;;;3.60;99.90;;;;;;4992689;28;20027;-81
2023/01/25 06:31:06;;;;;;;19.85;9.05;;;3.60;99.90;;;;;;4992102;28;20118;-80
2023/01/25 06:33:32;;;;;;;20.08;9.20;;;3.50;99.90;;;;;;4992307;28;20103;-80
2023/01/25 06:36:04;;;;;;;16.35;8.05;;;3.50;99.90;;;;;;4984593;28;20038;-85
2023/01/25 06:38:30;;;;;;;18.20;8.30;;;3.50;99.90;;;;;;4992078;28;20026;-85
2023/01/25 06:41:04;;;;;;;24.80;10.85;;;3.60;99.90;;;;;;5009091;28;20049;-82
2023/01/25 06:43:31;;;;;;;24.77;11.02;;;3.50;99.90;;;;;;5008808;28;20029;-85
2023/01/25 06:46:05;;;;;;;21.20;9.63;;;3.60;99.90;;;;;;5008844;28;20030;-81
2023/01/25 06:48:31;;;;;;;24.05;10.13;;;3.50;99.90;;;;;;5009000;28;20034;-82
2023/01/25 06:51:06;;;;;;;21.27;9.55;;;3.60;99.90;;;;;;5009537;28;20113;-83
2023/01/25 06:53:38;;;;;;;24.77;10.55;;;3.50;99.90;;;;;;4993170;28;20046;-81
2023/01/25 06:56:10;;;;;;;27.08;11.38;;;3.60;99.90;;;;;;4989351;28;20118;-82
2023/01/25 06:58:39;;;;;;;26.13;11.25;;;3.50;99.90;;;;;;4983960;28;20056;-84
2023/01/25 07:01:07;;;;;;;23.63;11.27;;;3.50;99.90;;;;;;5008311;28;20034;-84
2023/01/25 07:03:33;;;;;;;;;;;3.50;99.90;;;;;;4998902;28;20034;-80
2023/01/25 07:06:07;;;;;;;26.13;11.30;;;3.60;99.90;;;;;;5013582;28;20004;-82
2023/01/25 07:08:33;;;;;;;29.33;12.13;;;3.60;99.90;;;;;;5012772;28;20057;-82
2023/01/25 07:11:04;;;;;;;28.55;12.35;;;3.80;99.90;;;;;;5011645;28;20096;-84
2023/01/25 07:13:32;;;;;;;30.90;11.50;;;3.60;99.90;;;;;;5011579;28;20348;-83
2023/01/25 07:16:00;;;;;;;27.30;11.00;;;3.60;99.90;;;;;;5012516;28;20026;-82
2023/01/25 07:18:28;;;;;;;27.00;11.65;;;3.60;99.90;;;;;;5011692;28;20021;-84
2023/01/25 07:21:01;;;;;;;32.38;12.48;;;3.60;99.90;;;;;;5012173;28;20029;-84
2023/01/25 07:23:27;;;;;;;26.17;11.38;;;3.80;99.90;;;;;;5011131;28;20034;-83
2023/01/25 07:25:52;;;;;;;24.13;11.48;;;3.80;99.90;;;;;;5004912;28;20044;-83
2023/01/25 07:28:18;;;;;;;29.63;12.25;;;3.80;99.90;;;;;;5016241;28;20041;-83
2023/01/25 07:30:44;;;;;;;29.55;13.43;;;3.80;99.90;;;;;;5009478;28;20041;-83
2023/01/25 07:33:11;;;;;;;31.40;12.05;;;3.80;99.90;;;;;;4993377;28;20101;-82
2023/01/25 07:35:37;;;;;;;28.30;12.20;;;3.80;99.90;;;;;;4991271;28;20034;-83
2023/01/25 07:38:03;;;;;;;27.77;11.60;;;3.70;99.90;;;;;;4992896;28;20416;-83
2023/01/25 07:40:29;;;;;;;33.92;13.40;;;3.80;99.90;;;;;;4991591;28;20089;-82
2023/01/25 07:42:55;;;;;;;22.25;10.70;;;3.70;99.90;;;;;;4992507;28;20036;-82
2023/01/25 07:45:21;;;;;;;25.35;10.48;;;3.70;99.90;;;;;;4992041;28;20034;-83
2023/01/25 07:47:47;;;;;;;23.13;9.90;;;3.70;99.90;;;;;;4991373;28;20126;-81
2023/01/25 07:50:13;;;;;;;23.13;10.85;;;3.70;99.90;;;;;;4992543;28;20101;-81
2023/01/25 07:52:38;;;;;;;26.75;11.18;;;3.70;99.90;;;;;;4991904;28;20050;-80
2023/01/25 07:55:04;;;;;;;20.55;9.82;;;3.70;99.90;;;;;;4991881;28;20117;-82
2023/01/25 07:57:30;;;;;;;24.77;11.18;;;3.70;99.90;;;;;;4990894;28;20080;-82
2023/01/25 07:59:56;;;;;;;27.17;12.35;;;3.80;99.90;;;;;;4992439;28;20088;-81
2023/01/25 08:02:21;;;;;;;25.40;11.30;;;3.80;99.90;;;;;;4991023;28;20117;-81
2023/01/25 08:04:47;;;;;;;25.02;11.43;;;3.80;99.90;;;;;;4990919;28;20465;-81
2023/01/25 08:07:13;;;;;;;25.92;10.93;;;3.80;99.90;;;;;;4991171;28;20201;-81
2023/01/25 08:09:40;;;;;;;27.05;11.82;;;3.80;99.90;;;;;;4992026;28;20138;-82
2023/01/25 08:12:07;;;;;;;27.60;11.77;;;3.80;99.90;;;;;;4992408;28;20026;-82
2023/01/25 08:14:37;;;;;;;22.40;10.35;;;3.80;99.90;;;;;;4990637;28;20027;-82
2023/01/25 08:17:03;;;;;;;21.65;10.48;;;3.80;99.90;;;;;;4991048;28;20022;-81
2023/01/25 08:19:28;;;;;;;26.77;11.30;;;3.80;99.90;;;;;;4990711;28;20100;-80
2023/01/25 08:21:57;;;;;;;30.83;12.93;;;3.70;99.90;;;;;;4990578;28;20100;-81
2023/01/25 08:24:25;;;;;;;29.83;12.85;;;3.60;99.90;;;;;;4990816;28;20026;-81
2023/01/25 08:26:51;;;;;;;22.70;11.05;;;3.80;99.90;;;;;;4991000;28;20057;-81
2023/01/25 08:29:20;;;;;;;27.20;11.82;;;3.70;99.90;;;;;;4991772;28;20031;-82
2023/01/25 08:31:45;;;;;;;23.48;10.27;;;3.90;99.90;;;;;;4991144;28;20061;-83
2023/01/25 08:34:14;;;;;;;27.33;11.88;;;3.80;99.90;;;;;;4991698;28;20448;-82
2023/01/25 08:36:42;;;;;;;24.35;11.38;;;3.90;99.90;;;;;;4996101;28;20033;-83
2023/01/25 08:39:11;;;;;;;24.52;12.13;;;3.80;99.90;;;;;;4997143;28;20026;-81
2023/01/25 08:41:44;;;;;;;25.08;11.20;;;3.80;99.90;;;;;;4995665;28;20109;-83
2023/01/25 08:44:10;;;;;;;26.92;11.98;;;3.80;99.90;;;;;;4995737;28;20026;-82
2023/01/25 08:46:40;;;;;;;25.10;11.73;;;3.90;99.90;;;;;;4995335;28;20097;-84
2023/01/25 08:49:09;;;;;;;22.80;10.25;;;3.90;99.90;;;;;;4995803;28;20030;-82
2023/01/25 08:51:35;;;;;;;32.40;12.10;;;4.00;99.90;;;;;;4994521;28;20031;-82
2023/01/25 08:54:06;;;;;;;25.70;11.95;;;3.90;99.90;;;;;;4995788;28;20108;-82
2023/01/25 08:56:31;;;;;;;27.90;13.27;;;4.00;99.90;;;;;;4995214;28;20044;-81
2023/01/25 08:58:57;;;;;;;29.77;11.68;;;3.90;99.90;;;;;;4995538;28;20520;-82
2023/01/25 09:01:23;;;;;;;31.63;12.43;;;3.90;99.90;;;;;;4995205;28;20048;-82
2023/01/25 09:03:49;;;;;;;23.17;10.68;;;4.00;99.90;;;;;;4995826;28;20042;-82
2023/01/25 09:06:16;;;;;;;24.90;11.77;;;3.90;99.90;;;;;;4994226;28;20071;-83
2023/01/25 09:08:42;;;;;;;23.45;11.77;;;4.00;99.90;;;;;;4995185;28;20093;-81
2023/01/25 09:11:11;;;;;;;22.13;9.95;;;4.10;99.90;;;;;;4994012;28;20118;-81
2023/01/25 09:13:37;;;;;;;24.48;11.50;;;3.90;99.90;;;;;;4995170;28;20026;-82
2023/01/25 09:16:05;;;;;;;24.00;10.70;;;3.70;99.90;;;;;;4995589;28;20049;-83
2023/01/25 09:18:31;;;;;;;;;;;3.90;99.90;;;;;;4995657;28;20022;-83
2023/01/25 09:20:57;;;;;;;26.48;11.30;;;3.90;99.90;;;;;;4994503;28;20281;-80
2023/01/25 09:23:24;;;;;;;26.42;11.77;;;4.00;99.90;;;;;;4996208;28;20054;-82
2023/01/25 09:25:57;;;;;;;23.80;11.93;;;3.80;99.90;;;;;;4996331;28;20433;-82
2023/01/25 09:28:23;;;;;;;25.00;10.45;;;3.90;99.90;;;;;;4996096;28;20038;-81
2023/01/25 09:30:56;;;;;;;21.27;10.15;;;4.00;99.90;;;;;;4996057;28;20030;-81
2023/01/25 09:33:40;;;;;;;22.63;11.18;;;3.90;99.90;;;;;;4997671;28;20034;-82
2023/01/25 09:36:06;;;;;;;26.80;12.57;;;3.90;99.90;;;;;;4995220;28;20018;-83
2023/01/25 09:38:32;;;;;;;22.77;11.27;;;3.90;99.90;;;;;;4996764;28;20175;-82
2023/01/25 09:41:16;;;;;;;27.63;12.10;;;3.90;99.90;;;;;;4995766;28;20484;-80
2023/01/25 09:43:45;;;;;;;26.10;12.88;;;3.90;99.90;;;;;;4995547;28;20038;-81
2023/01/25 09:46:24;;;;;;;31.15;13.20;;;3.90;99.90;;;;;;4994230;28;20030;-82
2023/01/25 09:49:14;;;;;;;29.15;13.10;;;3.90;99.90;;;;;;4993383;28;20034;-82
2023/01/25 09:52:00;;;;;;;28.88;12.05;;;3.90;99.90;;;;;;4994256;28;20488;-80
2023/01/25 09:54:29;;;;;;;34.85;15.02;;;4.00;99.90;;;;;;4995480;28;20026;-81
2023/01/25 09:56:55;;;;;;;;;;;4.00;99.90;;;;;;4995278;28;20154;-81
2023/01/25 09:59:25;;;;;;;37.80;13.57;;;4.00;99.90;;;;;;4994394;28;19964;-82
2023/01/25 10:02:15;;;;;;;28.70;12.70;;;4.00;99.90;;;;;;4995194;28;20092;-82
2023/01/25 10:04:44;;;;;;;28.25;13.30;;;4.00;99.90;;;;;;4995521;28;20104;-82
2023/01/25 10:07:18;;;;;;;25.30;11.65;;;4.00;99.90;;;;;;4997548;28;20098;-82
2023/01/25 10:09:59;;;;;;;25.25;11.98;;;4.00;99.90;;;;;;4995137;28;20035;-83
2023/01/25 10:12:27;;;;;;;24.52;11.73;;;3.90;99.90;;;;;;4998656;28;20035;-82
2023/01/25 10:14:53;;;;;;;27.98;12.68;;;4.00;99.90;;;;;;5003391;28;20030;-81
2023/01/25 10:17:25;;;;;;;23.42;11.25;;;3.90;99.90;;;;;;5004801;28;20034;-82
2023/01/25 10:20:14;;;;;;;21.90;9.90;;;4.00;99.90;;;;;;5004076;28;20031;-80
2023/01/25 10:22:50;;;;;;;25.15;10.07;;;3.90;99.90;;;;;;5004850;28;20033;-82
2023/01/25 10:25:41;;;;;;;26.75;11.25;;;3.90;99.90;;;;;;5004068;28;20098;-82
2023/01/25 10:28:19;;;;;;;22.55;10.68;;;3.90;99.90;;;;;;5003905;28;20044;-83
2023/01/25 10:31:01;;;;;;;26.52;11.60;;;3.90;99.90;;;;;;4996768;28;20060;-83
2023/01/25 10:33:28;;;;;;;25.60;11.73;;;3.80;99.90;;;;;;4994085;28;20329;-80
2023/01/25 10:35:58;;;;;;;25.10;11.70;;;3.80;99.90;;;;;;4995456;28;20023;-81
2023/01/25 10:38:41;;;;;;;27.00;11.73;;;3.90;99.90;;;;;;4993946;28;20031;-79
2023/01/25 10:41:14;;;;;;;29.20;12.55;;;3.80;99.90;;;;;;4993865;28;20062;-81
2023/01/25 10:43:40;;;;;;;29.65;12.93;;;3.80;99.90;;;;;;4993932;28;20092;-81
2023/01/25 10:46:24;;;;;;;25.65;11.20;;;3.90;99.90;;;;;;4992939;28;20106;-82
2023/01/25 10:48:49;;;;;;;24.88;10.43;;;3.80;99.90;;;;;;4995854;28;20034;-80
2023/01/25 10:51:34;;;;;;;28.63;13.00;;;3.80;99.90;;;;;;4997729;28;20137;-78
2023/01/25 10:54:04;;;;;;;28.55;12.75;;;3.90;99.90;;;;;;4993897;28;20042;-80
2023/01/25 10:56:34;;;;;;;27.20;12.65;;;3.90;99.90;;;;;;4994648;28;20030;-78
2023/01/25 10:59:16;;;;;;;27.67;12.57;;;3.90;99.90;;;;;;4991498;28;20412;-79
2023/01/25 11:01:42;;;;;;;33.95;11.93;;;3.90;99.90;;;;;;4998906;28;20056;-79
2023/01/25 11:04:29;;;;;;;28.15;12.25;;;4.10;99.90;;;;;;4997545;28;20046;-81
2023/01/25 11:06:55;;;;;;;30.80;14.13;;;4.10;99.90;;;;;;4995741;28;20052;-81
2023/01/25 11:09:20;;;;;;;26.90;12.20;;;3.90;99.90;;;;;;4993905;28;20398;-81
2023/01/25 11:11:55;;;;;;;26.25;11.43;;;3.90;99.90;;;;;;4993261;28;20039;-81
2023/01/25 11:14:24;;;;;;;22.77;11.32;;;3.90;99.90;;;;;;4992849;28;20023;-79
2023/01/25 11:16:50;;;;;;;23.17;11.32;;;3.70;99.90;;;;;;4995938;28;20484;-81
2023/01/25 11:19:30;;;;;;;24.15;10.80;;;3.80;99.90;;;;;;4995579;28;20041;-80
2023/01/25 11:21:57;;;;;;;22.67;10.07;;;3.90;99.90;;;;;;4996264;28;20049;-79
2023/01/25 11:24:31;;;;;;;25.65;11.57;;;4.00;99.90;;;;;;4996217;28;20045;-80
2023/01/25 11:27:20;;;;;;;27.95;10.50;;;4.00;99.90;;;;;;4988654;28;20061;-80
2023/01/25 11:30:09;;;;;;;28.55;11.70;;;4.10;99.90;;;;;;4991485;28;20105;-81
2023/01/25 11:32:38;;;;;;;25.30;10.38;;;4.10;99.90;;;;;;4992300;28;20026;-81
2023/01/25 11:35:11;;;;;;;22.20;10.45;;;4.10;99.90;;;;;;4992249;28;20060;-81
2023/01/25 11:37:46;;;;;;;20.50;9.88;;;4.10;99.90;;;;;;4992159;28;20130;-79
2023/01/25 11:40:38;;;;;;;23.50;10.02;;;4.00;99.90;;;;;;4992148;28;20049;-78
2023/01/25 11:43:21;;;;;;;20.30;9.23;;;4.00;99.90;;;;;;4994876;28;20023;-82
2023/01/25 11:46:06;;;;;;;20.50;9.93;;;3.80;99.90;;;;;;4994207;28;20042;-80
2023/01/25 11:48:42;;;;;;;20.05;9.90;;;3.80;99.90;;;;;;4991945;28;20038;-80
2023/01/25 11:51:17;;;;;;;20.75;9.50;;;3.90;99.90;;;;;;4991455;28;20023;-78
2023/01/25 11:53:54;;;;;;;21.08;9.25;;;4.00;99.90;;;;;;4992587;28;20042;-79
2023/01/25 11:56:52;;;;;;;18.73;8.65;;;4.00;99.90;;;;;;4990861;28;20030;-79
2023/01/25 11:59:42;;;;;;;22.25;10.38;;;4.00;99.90;;;;;;4990498;28;20038;-79
2023/01/25 12:02:56;;;;;;;25.38;9.93;;;4.00;99.90;;;;;;4990980;28;20034;-76
2023/01/25 12:05:48;;;;;;;21.67;10.60;;;4.00;99.90;;;;;;4996849;28;20523;-79
2023/01/25 12:08:32;;;;;;;21.23;10.88;;;4.00;99.90;;;;;;4998215;28;20518;-81
2023/01/25 12:11:35;;;;;;;30.70;11.90;;;3.90;99.90;;;;;;4995213;28;20026;-77
2023/01/25 12:14:20;;;;;;;23.52;9.85;;;4.10;99.90;;;;;;4995646;28;20035;-79
2023/01/25 12:17:03;;;;;;;21.65;10.75;;;4.10;99.90;;;;;;4996577;28;20037;-77
2023/01/25 12:19:47;;;;;;;24.15;11.20;;;4.10;99.90;;;;;;4993356;28;20046;-79
2023/01/25 12:22:22;;;;;;;26.98;12.00;;;4.20;99.90;;;;;;4996809;28;20468;-79
2023/01/25 12:25:03;;;;;;;27.73;11.60;;;4.10;99.90;;;;;;4999951;28;20046;-80
2023/01/25 12:27:55;;;;;;;20.98;10.40;;;4.20;99.90;;;;;;4995246;28;20054;-79
2023/01/25 12:30:36;;;;;;;23.45;10.90;;;4.00;99.90;;;;;;4991394;28;20034;-79
2023/01/25 12:33:11;;;;;;;22.55;10.45;;;4.10;99.90;;;;;;4992767;28;20043;-79
2023/01/25 12:35:42;;;;;;;20.67;9.75;;;4.10;99.90;;;;;;4993007;28;20034;-79
2023/01/25 12:38:31;;;;;;;18.95;9.65;;;4.10;99.90;;;;;;4992434;28;20061;-80
2023/01/25 12:41:08;;;;;;;18.83;8.85;;;4.10;99.90;;;;;;4991398;28;20069;-79
2023/01/25 12:44:09;;;;;;;20.08;10.57;;;4.10;99.90;;;;;;4991882;28;20034;-80
2023/01/25 12:46:41;;;;;;;24.50;10.43;;;4.10;99.90;;;;;;4972276;28;20521;-81
2023/01/25 12:49:20;;;;;;;24.30;10.70;;;4.20;99.90;;;;;;5000658;28;20026;-80
2023/01/25 12:51:47;;;;;;;22.90;9.77;;;4.20;99.90;;;;;;4993068;28;20030;-79
2023/01/25 12:54:21;;;;;;;21.98;9.10;;;4.20;99.90;;;;;;4993100;28;20030;-78
2023/01/25 12:56:47;;;;;;;21.45;9.18;;;4.20;99.90;;;;;;4992030;28;20393;-82
2023/01/25 12:59:42;;;;;;;21.50;9.63;;;4.20;99.90;;;;;;4993959;28;20487;-80